sensor_id;sensor_type;location;lat;lon;timestamp;P1;durP1;ratioP1;P2;durP2;ratioP2
12459;SDS011;6295;49.452;8.466;2022-10-17T05:12:56;3.00;;;2.47;;
12459;SDS011;6295;49.452;8.466;2022-10-17T05:16:58;3.80;;;2.57;;
12459;SDS011;6295;49.452;8.466;2022-10-17T05:21:02;3.37;;;2.40;;
12459;SDS011;6295;49.452;8.466;2022-10-17T05:25:06;4.37;;;2.50;;
12459;SDS011;6295;49.452;8.466;2022-10-17T05:29:10;3.13;;;2.47;;
12459;SDS011;6295;49.452;8.466;2022-10-17T05:33:12;3.63;;;2.60;;
12459;SDS011;6295;49.452;8.466;2022-10-17T05:37:14;3.07;;;2.50;;
12459;SDS011;6295;49.452;8.466;2022-10-17T05:41:17;3.97;;;2.63;;
12459;SDS011;6295;49.452;8.466;2022-10-17T05:45:21;2.87;;;2.57;;
12459;SDS011;6295;49.452;8.466;2022-10-17T05:49:24;3.77;;;2.67;;
12459;SDS011;6295;49.452;8.466;2022-10-17T05:53:28;2.77;;;2.40;;
12459;SDS011;6295;49.452;8.466;2022-10-17T05:57:32;2.73;;;2.53;;
12459;SDS011;6295;49.452;8.466;2022-10-17T06:01:36;3.90;;;2.53;;
12459;SDS011;6295;49.452;8.466;2022-10-17T06:05:38;4.87;;;2.50;;
12459;SDS011;6295;49.452;8.466;2022-10-17T06:09:40;3.20;;;2.90;;
12459;SDS011;6295;49.452;8.466;2022-10-17T06:13:43;4.13;;;3.20;;
12459;SDS011;6295;49.452;8.466;2022-10-17T06:17:47;3.83;;;3.47;;
12459;SDS011;6295;49.452;8.466;2022-10-17T06:21:49;4.43;;;3.23;;
12459;SDS011;6295;49.452;8.466;2022-10-17T06:25:52;5.03;;;3.53;;
12459;SDS011;6295;49.452;8.466;2022-10-17T06:29:54;4.53;;;3.50;;
12459;SDS011;6295;49.452;8.466;2022-10-17T06:34:00;3.43;;;3.13;;
12459;SDS011;6295;49.452;8.466;2022-10-17T06:38:02;4.27;;;3.23;;
12459;SDS011;6295;49.452;8.466;2022-10-17T06:42:05;3.60;;;3.30;;
12459;SDS011;6295;49.452;8.466;2022-10-17T06:46:07;3.57;;;3.27;;
12459;SDS011;6295;49.452;8.466;2022-10-17T06:50:11;3.87;;;3.50;;
12459;SDS011;6295;49.452;8.466;2022-10-17T06:54:13;4.00;;;3.40;;
12459;SDS011;6295;49.452;8.466;2022-10-17T06:58:17;6.30;;;3.57;;
12459;SDS011;6295;49.452;8.466;2022-10-17T07:02:21;5.90;;;3.40;;
12459;SDS011;6295;49.452;8.466;2022-10-17T07:06:25;3.43;;;3.13;;
12459;SDS011;6295;49.452;8.466;2022-10-17T07:10:27;5.90;;;3.70;;
12459;SDS011;6295;49.452;8.466;2022-10-17T07:14:30;3.70;;;3.30;;
12459;SDS011;6295;49.452;8.466;2022-10-17T07:18:32;3.63;;;3.33;;
12459;SDS011;6295;49.452;8.466;2022-10-17T07:22:36;4.10;;;3.70;;
12459;SDS011;6295;49.452;8.466;2022-10-17T07:26:38;5.10;;;3.83;;
12459;SDS011;6295;49.452;8.466;2022-10-17T07:30:40;4.10;;;3.70;;
12459;SDS011;6295;49.452;8.466;2022-10-17T07:34:46;4.00;;;3.60;;
12459;SDS011;6295;49.452;8.466;2022-10-17T07:38:51;7.33;;;3.90;;
12459;SDS011;6295;49.452;8.466;2022-10-17T07:42:53;3.80;;;3.50;;
12459;SDS011;6295;49.452;8.466;2022-10-17T07:46:55;4.60;;;3.83;;
12459;SDS011;6295;49.452;8.466;2022-10-17T07:51:00;5.17;;;3.97;;
12459;SDS011;6295;49.452;8.466;2022-10-17T07:55:05;5.23;;;3.97;;
12459;SDS011;6295;49.452;8.466;2022-10-17T07:59:08;5.97;;;4.00;;
12459;SDS011;6295;49.452;8.466;2022-10-17T08:03:11;3.73;;;3.43;;
12459;SDS011;6295;49.452;8.466;2022-10-17T08:07:13;4.27;;;3.87;;
12459;SDS011;6295;49.452;8.466;2022-10-17T08:11:17;4.90;;;4.00;;
12459;SDS011;6295;49.452;8.466;2022-10-17T08:15:20;6.93;;;4.00;;
12459;SDS011;6295;49.452;8.466;2022-10-17T08:19:22;5.27;;;4.00;;
12459;SDS011;6295;49.452;8.466;2022-10-17T08:23:25;5.80;;;3.93;;
12459;SDS011;6295;49.452;8.466;2022-10-17T08:27:29;4.77;;;3.67;;
12459;SDS011;6295;49.452;8.466;2022-10-17T08:31:31;4.20;;;3.80;;
12459;SDS011;6295;49.452;8.466;2022-10-17T08:35:34;4.20;;;3.80;;
12459;SDS011;6295;49.452;8.466;2022-10-17T08:39:36;4.20;;;3.80;;
12459;SDS011;6295;49.452;8.466;2022-10-17T08:43:46;3.90;;;3.40;;
12459;SDS011;6295;49.452;8.466;2022-10-17T08:48:01;5.67;;;3.60;;
12459;SDS011;6295;49.452;8.466;2022-10-17T08:52:10;4.00;;;3.70;;
12459;SDS011;6295;49.452;8.466;2022-10-17T08:56:23;4.37;;;3.97;;
12459;SDS011;6295;49.452;8.466;2022-10-17T09:00:30;5.53;;;3.93;;
12459;SDS011;6295;49.452;8.466;2022-10-17T09:04:37;7.30;;;3.90;;
12459;SDS011;6295;49.452;8.466;2022-10-17T09:09:02;5.80;;;3.70;;
12459;SDS011;6295;49.452;8.466;2022-10-17T09:13:18;4.33;;;3.93;;
12459;SDS011;6295;49.452;8.466;2022-10-17T09:17:32;5.33;;;3.73;;
12459;SDS011;6295;49.452;8.466;2022-10-17T09:21:41;6.27;;;3.90;;
12459;SDS011;6295;49.452;8.466;2022-10-17T09:25:45;5.70;;;3.70;;
12459;SDS011;6295;49.452;8.466;2022-10-17T09:29:53;5.00;;;3.83;;
12459;SDS011;6295;49.452;8.466;2022-10-17T09:34:07;4.80;;;3.87;;
12459;SDS011;6295;49.452;8.466;2022-10-17T09:38:14;8.10;;;4.10;;
12459;SDS011;6295;49.452;8.466;2022-10-17T09:42:17;4.23;;;3.77;;
12459;SDS011;6295;49.452;8.466;2022-10-17T09:46:23;6.40;;;4.13;;
12459;SDS011;6295;49.452;8.466;2022-10-17T09:50:29;4.60;;;4.20;;
12459;SDS011;6295;49.452;8.466;2022-10-17T09:54:35;4.33;;;3.93;;
12459;SDS011;6295;49.452;8.466;2022-10-17T09:58:42;4.40;;;4.00;;
12459;SDS011;6295;49.452;8.466;2022-10-17T10:02:46;4.20;;;3.80;;
12459;SDS011;6295;49.452;8.466;2022-10-17T10:07:01;4.33;;;3.93;;
12459;SDS011;6295;49.452;8.466;2022-10-17T10:11:05;4.70;;;4.17;;
12459;SDS011;6295;49.452;8.466;2022-10-17T10:15:28;6.03;;;4.53;;
12459;SDS011;6295;49.452;8.466;2022-10-17T10:19:32;6.27;;;4.07;;
12459;SDS011;6295;49.452;8.466;2022-10-17T10:23:39;5.03;;;3.93;;
12459;SDS011;6295;49.452;8.466;2022-10-17T10:27:44;4.73;;;4.10;;
12459;SDS011;6295;49.452;8.466;2022-10-17T10:31:48;4.53;;;4.03;;
12459;SDS011;6295;49.452;8.466;2022-10-17T10:35:51;6.17;;;4.00;;
12459;SDS011;6295;49.452;8.466;2022-10-17T10:39:59;5.63;;;4.20;;
12459;SDS011;6295;49.452;8.466;2022-10-17T10:44:03;4.67;;;4.27;;
12459;SDS011;6295;49.452;8.466;2022-10-17T10:48:13;4.50;;;4.10;;
12459;SDS011;6295;49.452;8.466;2022-10-17T10:52:28;6.07;;;4.30;;
12459;SDS011;6295;49.452;8.466;2022-10-17T10:56:36;4.00;;;3.70;;
12459;SDS011;6295;49.452;8.466;2022-10-17T11:00:40;6.13;;;4.10;;
12459;SDS011;6295;49.452;8.466;2022-10-17T11:04:44;4.87;;;4.00;;
12459;SDS011;6295;49.452;8.466;2022-10-17T11:08:49;5.10;;;3.90;;
12459;SDS011;6295;49.452;8.466;2022-10-17T11:13:08;6.20;;;4.20;;
12459;SDS011;6295;49.452;8.466;2022-10-17T11:17:16;4.97;;;3.90;;
12459;SDS011;6295;49.452;8.466;2022-10-17T11:21:31;6.27;;;4.00;;
12459;SDS011;6295;49.452;8.466;2022-10-17T11:25:39;4.20;;;3.80;;
12459;SDS011;6295;49.452;8.466;2022-10-17T11:29:43;4.50;;;4.10;;
12459;SDS011;6295;49.452;8.466;2022-10-17T11:33:47;3.77;;;3.47;;
12459;SDS011;6295;49.452;8.466;2022-10-17T11:37:52;5.27;;;3.50;;
12459;SDS011;6295;49.452;8.466;2022-10-17T11:42:04;4.13;;;3.50;;
12459;SDS011;6295;49.452;8.466;2022-10-17T11:46:13;4.43;;;3.70;;
12459;SDS011;6295;49.452;8.466;2022-10-17T11:50:21;4.57;;;3.80;;
12459;SDS011;6295;49.452;8.466;2022-10-17T11:54:27;4.70;;;3.57;;
12459;SDS011;6295;49.452;8.466;2022-10-17T11:58:35;4.40;;;3.60;;
12459;SDS011;6295;49.452;8.466;2022-10-17T12:02:45;4.17;;;3.77;;
12459;SDS011;6295;49.452;8.466;2022-10-17T12:06:55;3.90;;;3.50;;
12459;SDS011;6295;49.452;8.466;2022-10-17T12:11:09;5.03;;;3.70;;
12459;SDS011;6295;49.452;8.466;2022-10-17T12:15:28;4.83;;;3.33;;
12459;SDS011;6295;49.452;8.466;2022-10-17T12:19:34;4.00;;;3.30;;
12459;SDS011;6295;49.452;8.466;2022-10-17T12:23:38;3.53;;;3.23;;
12459;SDS011;6295;49.452;8.466;2022-10-17T12:27:41;5.27;;;3.73;;
12459;SDS011;6295;49.452;8.466;2022-10-17T12:31:45;7.97;;;4.23;;
12459;SDS011;6295;49.452;8.466;2022-10-17T12:35:49;5.57;;;3.70;;
12459;SDS011;6295;49.452;8.466;2022-10-17T12:39:52;7.30;;;3.73;;
12459;SDS011;6295;49.452;8.466;2022-10-17T12:43:54;4.33;;;4.00;;
12459;SDS011;6295;49.452;8.466;2022-10-17T12:47:56;4.67;;;4.00;;
12459;SDS011;6295;49.452;8.466;2022-10-17T12:52:13;4.20;;;3.80;;
12459;SDS011;6295;49.452;8.466;2022-10-17T12:56:21;4.53;;;4.03;;
12459;SDS011;6295;49.452;8.466;2022-10-17T13:00:33;4.07;;;3.63;;
12459;SDS011;6295;49.452;8.466;2022-10-17T13:04:37;3.77;;;3.47;;
12459;SDS011;6295;49.452;8.466;2022-10-17T13:08:42;4.07;;;3.67;;
12459;SDS011;6295;49.452;8.466;2022-10-17T13:12:46;5.23;;;3.27;;
12459;SDS011;6295;49.452;8.466;2022-10-17T13:16:50;5.37;;;3.87;;
12459;SDS011;6295;49.452;8.466;2022-10-17T13:20:56;5.43;;;3.53;;
12459;SDS011;6295;49.452;8.466;2022-10-17T13:25:06;4.57;;;3.80;;
12459;SDS011;6295;49.452;8.466;2022-10-17T13:29:10;6.23;;;3.57;;
12459;SDS011;6295;49.452;8.466;2022-10-17T13:33:20;5.47;;;3.30;;
12459;SDS011;6295;49.452;8.466;2022-10-17T13:37:31;4.27;;;3.70;;
12459;SDS011;6295;49.452;8.466;2022-10-17T13:41:36;4.07;;;3.67;;
12459;SDS011;6295;49.452;8.466;2022-10-17T13:45:43;5.40;;;3.47;;
12459;SDS011;6295;49.452;8.466;2022-10-17T13:49:48;4.60;;;3.90;;
12459;SDS011;6295;49.452;8.466;2022-10-17T13:53:52;5.30;;;3.60;;
12459;SDS011;6295;49.452;8.466;2022-10-17T13:57:55;5.30;;;3.87;;
12459;SDS011;6295;49.452;8.466;2022-10-17T14:02:12;5.30;;;3.90;;
12459;SDS011;6295;49.452;8.466;2022-10-17T14:06:16;5.27;;;3.80;;
12459;SDS011;6295;49.452;8.466;2022-10-17T14:10:21;4.23;;;3.53;;
12459;SDS011;6295;49.452;8.466;2022-10-17T14:14:27;4.17;;;3.77;;
12459;SDS011;6295;49.452;8.466;2022-10-17T14:18:31;4.33;;;3.93;;
12459;SDS011;6295;49.452;8.466;2022-10-17T14:22:35;4.23;;;3.73;;
12459;SDS011;6295;49.452;8.466;2022-10-17T14:26:47;4.43;;;3.90;;
12459;SDS011;6295;49.452;8.466;2022-10-17T14:30:52;4.10;;;3.80;;
12459;SDS011;6295;49.452;8.466;2022-10-17T14:34:55;5.10;;;3.80;;
12459;SDS011;6295;49.452;8.466;2022-10-17T14:39:00;5.00;;;3.90;;
12459;SDS011;6295;49.452;8.466;2022-10-17T14:43:04;9.37;;;4.43;;
12459;SDS011;6295;49.452;8.466;2022-10-17T14:47:15;6.17;;;4.23;;
12459;SDS011;6295;49.452;8.466;2022-10-17T14:51:20;6.13;;;4.47;;
12459;SDS011;6295;49.452;8.466;2022-10-17T14:55:23;5.47;;;3.87;;
12459;SDS011;6295;49.452;8.466;2022-10-17T14:59:28;7.07;;;4.23;;
12459;SDS011;6295;49.452;8.466;2022-10-17T15:03:32;4.30;;;3.90;;
12459;SDS011;6295;49.452;8.466;2022-10-17T15:07:35;6.83;;;4.27;;
12459;SDS011;6295;49.452;8.466;2022-10-17T15:11:37;6.53;;;4.10;;
12459;SDS011;6295;49.452;8.466;2022-10-17T15:15:39;4.30;;;3.90;;
12459;SDS011;6295;49.452;8.466;2022-10-17T15:19:44;4.17;;;3.80;;
12459;SDS011;6295;49.452;8.466;2022-10-17T15:23:46;5.03;;;3.97;;
12459;SDS011;6295;49.452;8.466;2022-10-17T15:27:48;5.60;;;4.13;;
12459;SDS011;6295;49.452;8.466;2022-10-17T15:31:51;5.10;;;4.17;;
12459;SDS011;6295;49.452;8.466;2022-10-17T15:35:55;5.10;;;4.00;;
12459;SDS011;6295;49.452;8.466;2022-10-17T15:39:57;5.10;;;4.10;;
12459;SDS011;6295;49.452;8.466;2022-10-17T15:43:59;4.90;;;4.50;;
12459;SDS011;6295;49.452;8.466;2022-10-17T15:48:03;5.53;;;4.20;;
12459;SDS011;6295;49.452;8.466;2022-10-17T15:52:09;4.63;;;4.20;;
12459;SDS011;6295;49.452;8.466;2022-10-17T15:56:14;6.60;;;4.70;;
12459;SDS011;6295;49.452;8.466;2022-10-17T16:00:22;7.13;;;5.00;;
12459;SDS011;6295;49.452;8.466;2022-10-17T16:04:25;4.80;;;4.40;;
12459;SDS011;6295;49.452;8.466;2022-10-17T16:08:31;6.13;;;5.10;;
12459;SDS011;6295;49.452;8.466;2022-10-17T16:12:33;6.23;;;4.90;;
12459;SDS011;6295;49.452;8.466;2022-10-17T16:16:40;5.77;;;4.97;;
12459;SDS011;6295;49.452;8.466;2022-10-17T16:20:42;5.67;;;5.07;;
12459;SDS011;6295;49.452;8.466;2022-10-17T16:24:46;5.53;;;5.03;;
12459;SDS011;6295;49.452;8.466;2022-10-17T16:28:48;7.57;;;5.30;;
12459;SDS011;6295;49.452;8.466;2022-10-17T16:32:51;7.60;;;4.90;;
12459;SDS011;6295;49.452;8.466;2022-10-17T16:36:54;8.03;;;4.93;;
12459;SDS011;6295;49.452;8.466;2022-10-17T16:40:57;6.03;;;4.60;;
12459;SDS011;6295;49.452;8.466;2022-10-17T16:45:00;6.93;;;4.87;;
12459;SDS011;6295;49.452;8.466;2022-10-17T16:49:02;6.20;;;5.10;;
12459;SDS011;6295;49.452;8.466;2022-10-17T16:53:05;5.40;;;4.90;;
12459;SDS011;6295;49.452;8.466;2022-10-17T16:57:09;5.77;;;4.97;;
12459;SDS011;6295;49.452;8.466;2022-10-17T17:01:12;5.67;;;5.07;;
12459;SDS011;6295;49.452;8.466;2022-10-17T17:05:15;9.90;;;5.17;;
12459;SDS011;6295;49.452;8.466;2022-10-17T17:09:18;5.70;;;5.10;;
12459;SDS011;6295;49.452;8.466;2022-10-17T17:13:22;5.97;;;5.07;;
12459;SDS011;6295;49.452;8.466;2022-10-17T17:17:24;7.10;;;4.80;;
12459;SDS011;6295;49.452;8.466;2022-10-17T17:21:26;5.90;;;5.30;;
12459;SDS011;6295;49.452;8.466;2022-10-17T17:25:31;5.70;;;5.20;;
12459;SDS011;6295;49.452;8.466;2022-10-17T17:29:36;5.73;;;5.20;;
12459;SDS011;6295;49.452;8.466;2022-10-17T17:33:39;5.60;;;5.10;;
12459;SDS011;6295;49.452;8.466;2022-10-17T17:37:42;5.80;;;5.07;;
12459;SDS011;6295;49.452;8.466;2022-10-17T17:41:45;5.70;;;4.93;;
12459;SDS011;6295;49.452;8.466;2022-10-17T17:45:48;6.40;;;5.40;;
12459;SDS011;6295;49.452;8.466;2022-10-17T17:49:51;5.77;;;4.60;;
12459;SDS011;6295;49.452;8.466;2022-10-17T17:53:53;6.13;;;4.90;;
12459;SDS011;6295;49.452;8.466;2022-10-17T17:57:55;5.17;;;4.60;;
12459;SDS011;6295;49.452;8.466;2022-10-17T18:01:59;5.50;;;5.00;;
12459;SDS011;6295;49.452;8.466;2022-10-17T18:06:03;5.23;;;4.73;;
12459;SDS011;6295;49.452;8.466;2022-10-17T18:10:07;5.03;;;4.60;;
12459;SDS011;6295;49.452;8.466;2022-10-17T18:14:11;5.40;;;4.90;;
12459;SDS011;6295;49.452;8.466;2022-10-17T18:18:16;5.00;;;4.50;;
12459;SDS011;6295;49.452;8.466;2022-10-17T18:22:21;5.57;;;4.90;;
12459;SDS011;6295;49.452;8.466;2022-10-17T18:26:24;6.93;;;4.93;;
12459;SDS011;6295;49.452;8.466;2022-10-17T18:30:27;5.10;;;4.60;;
12459;SDS011;6295;49.452;8.466;2022-10-17T18:34:31;5.30;;;4.80;;
12459;SDS011;6295;49.452;8.466;2022-10-17T18:38:33;6.43;;;4.90;;
12459;SDS011;6295;49.452;8.466;2022-10-17T18:42:36;5.47;;;4.70;;
12459;SDS011;6295;49.452;8.466;2022-10-17T18:46:38;5.47;;;4.57;;
12459;SDS011;6295;49.452;8.466;2022-10-17T18:50:43;6.37;;;5.10;;
12459;SDS011;6295;49.452;8.466;2022-10-17T18:54:46;7.13;;;4.50;;
